createdAt,value
2019-01-10T00:01:27.781Z,100796.45
2019-01-10T00:03:59.166Z,100798.08
2019-01-10T00:06:30.555Z,100799.54
2019-01-10T00:09:01.913Z,100803.86
2019-01-10T00:11:34.976Z,100806.95
2019-01-10T00:14:06.370Z,100804.34
2019-01-10T00:16:37.814Z,100804.42
2019-01-10T00:19:09.144Z,100805.88
2019-01-10T00:21:40.595Z,100797.98
2019-01-10T00:24:14.638Z,100796.75
2019-01-10T00:26:46.071Z,100805.14
2019-01-10T00:29:17.396Z,100808.23
2019-01-10T00:31:48.772Z,100804.06
2019-01-10T00:34:21.759Z,100808.87
2019-01-10T00:36:53.052Z,100814.98
2019-01-10T00:39:24.434Z,100818.89
2019-01-10T00:41:55.994Z,100816.77
2019-01-10T00:44:27.318Z,100816.59
2019-01-10T00:46:58.768Z,100827.98
2019-01-10T00:49:30.086Z,100826.28
2019-01-10T00:52:01.388Z,100831.16
2019-01-10T00:54:32.838Z,100829.04
2019-01-10T00:57:04.364Z,100835.56
2019-01-10T00:59:35.762Z,100829.94
2019-01-10T01:02:07.135Z,100836.86
2019-01-10T01:04:38.553Z,100844.28
2019-01-10T01:07:10.014Z,100837.91
2019-01-10T01:09:41.366Z,100842.30
2019-01-10T01:12:12.838Z,100847.59
2019-01-10T01:14:44.152Z,100852.48
2019-01-10T01:17:15.962Z,100860.46
2019-01-10T01:19:48.463Z,100864.04
2019-01-10T01:22:19.844Z,100868.44
2019-01-10T01:24:51.316Z,100866.80
2019-01-10T01:27:22.801Z,100875.59
2019-01-10T01:29:54.126Z,100883.91
2019-01-10T01:32:25.558Z,100879.59
2019-01-10T01:34:57.007Z,100885.70
2019-01-10T01:37:28.369Z,100887.83
2019-01-10T01:39:59.760Z,100895.24
2019-01-10T01:42:31.126Z,100903.89
2019-01-10T01:45:02.520Z,100903.81
2019-01-10T01:47:35.041Z,100902.50
2019-01-10T01:50:13.952Z,100912.30
2019-01-10T01:52:46.479Z,100919.16
2019-01-10T01:55:17.891Z,100915.00
2019-01-10T01:57:49.444Z,100909.30
2019-01-10T02:00:24.982Z,100909.14
2019-01-10T02:02:59.311Z,100906.46
2019-01-10T02:05:30.763Z,100912.91
2019-01-10T02:08:05.392Z,100909.48
2019-01-10T02:10:36.766Z,100908.98
2019-01-10T02:13:16.313Z,100912.49
2019-01-10T02:15:41.079Z,100905.73
2019-01-10T02:18:14.045Z,100909.57
2019-01-10T02:20:45.305Z,100912.34
2019-01-10T02:23:18.420Z,100905.81
2019-01-10T02:25:49.812Z,100901.91
2019-01-10T02:28:21.279Z,100907.77
2019-01-10T02:30:53.338Z,100911.75
2019-01-10T02:33:24.632Z,100916.64
2019-01-10T02:35:55.979Z,100918.84
2019-01-10T02:38:27.247Z,100914.19
2019-01-10T02:40:58.533Z,100913.29
2019-01-10T02:43:29.838Z,100916.55
2019-01-10T02:46:01.121Z,100918.34
2019-01-10T02:48:34.164Z,100915.80
2019-01-10T02:51:05.548Z,100915.80
2019-01-10T02:53:36.922Z,100917.19
2019-01-10T02:56:08.387Z,100917.67
2019-01-10T02:58:39.700Z,100917.27
2019-01-10T03:01:11.012Z,100916.86
2019-01-10T03:03:42.424Z,100924.19
2019-01-10T03:06:13.671Z,100925.91
2019-01-10T03:08:45.189Z,100921.58
2019-01-10T03:11:24.887Z,100929.00
2019-01-10T03:13:56.304Z,100923.70
2019-01-10T03:16:27.549Z,100923.62
2019-01-10T03:18:58.972Z,100923.30
2019-01-10T03:21:30.359Z,100915.88
2019-01-10T03:24:01.659Z,100924.94
2019-01-10T03:26:32.907Z,100924.04
2019-01-10T03:29:04.385Z,100914.50
2019-01-10T03:31:35.732Z,100920.05
2019-01-10T03:34:07.102Z,100918.74
2019-01-10T03:36:38.526Z,100921.35
2019-01-10T03:39:10.107Z,100915.65
2019-01-10T03:41:41.922Z,100919.07
2019-01-10T03:44:13.469Z,100927.88
2019-01-10T03:46:44.799Z,100927.47
2019-01-10T03:49:16.101Z,100928.36
2019-01-10T03:51:47.344Z,100928.03
2019-01-10T03:54:18.744Z,100921.84
2019-01-10T03:56:50.151Z,100925.34
2019-01-10T03:59:23.771Z,100916.21
2019-01-10T04:01:55.029Z,100926.16
2019-01-10T04:04:26.381Z,100925.83
2019-01-10T04:07:09.825Z,100926.72
2019-01-10T04:09:41.172Z,100919.64
2019-01-10T04:12:12.502Z,100926.16
2019-01-10T04:14:43.840Z,100919.48
2019-01-10T04:17:15.173Z,100923.47
2019-01-10T04:19:46.627Z,100921.61
2019-01-10T04:22:18.107Z,100921.27
2019-01-10T04:24:49.398Z,100925.59
2019-01-10T04:27:23.428Z,100932.20
2019-01-10T04:29:54.757Z,100930.48
2019-01-10T04:32:37.473Z,100935.13
2019-01-10T04:35:09.490Z,100931.70
2019-01-10T04:37:41.229Z,100929.51
2019-01-10T04:40:22.037Z,100935.21
2019-01-10T04:42:53.382Z,100931.70
2019-01-10T04:45:24.780Z,100937.41
2019-01-10T04:47:56.959Z,100936.03
2019-01-10T04:50:28.346Z,100948.33
2019-01-10T04:53:01.229Z,100949.97
2019-01-10T04:55:32.696Z,100948.17
2019-01-10T04:58:07.145Z,100955.52
2019-01-10T05:00:41.317Z,100953.39
2019-01-10T05:03:12.961Z,100954.12
2019-01-10T05:05:44.263Z,100955.52
2019-01-10T05:08:15.639Z,100961.63
2019-01-10T05:10:46.937Z,100967.33
2019-01-10T05:13:18.192Z,100972.95
2019-01-10T05:15:49.559Z,100968.48
2019-01-10T05:18:20.883Z,100972.87
2019-01-10T05:20:52.263Z,100978.83
2019-01-10T05:23:23.754Z,100973.61
2019-01-10T05:25:55.127Z,100971.90
2019-01-10T05:28:26.543Z,100974.92
2019-01-10T05:30:58.077Z,100975.41
2019-01-10T05:33:29.525Z,100973.28
2019-01-10T05:36:01.052Z,100982.82
2019-01-10T05:38:32.573Z,100977.20
2019-01-10T05:41:08.999Z,100978.58
2019-01-10T05:43:39.617Z,100977.28
2019-01-10T05:46:11.180Z,100982.41
2019-01-10T05:48:47.169Z,100989.50
2019-01-10T05:51:15.793Z,100993.34
2019-01-10T05:53:47.106Z,100989.83
2019-01-10T05:56:19.547Z,100991.55
2019-01-10T05:58:50.842Z,100996.84
2019-01-10T06:01:22.277Z,101000.75
2019-01-10T06:03:55.434Z,101005.41
2019-01-10T06:06:26.878Z,101004.02
2019-01-10T06:08:58.409Z,101009.23
2019-01-10T06:11:29.844Z,101013.06
2019-01-10T06:14:01.181Z,101014.45
2019-01-10T06:16:32.687Z,101017.39
2019-01-10T06:19:04.250Z,101018.61
2019-01-10T06:21:35.714Z,101017.80
2019-01-10T06:24:07.240Z,101022.84
2019-01-10T06:26:38.667Z,101022.03
2019-01-10T06:29:10.375Z,101019.27
2019-01-10T06:31:41.987Z,101021.95
2019-01-10T06:34:13.511Z,101030.59
2019-01-10T06:36:44.897Z,101028.72
2019-01-10T06:39:19.473Z,101038.66
2019-01-10T06:41:49.462Z,101039.06
2019-01-10T06:44:21.587Z,101041.67
2019-01-10T06:46:53.321Z,101045.09
2019-01-10T06:49:24.900Z,101044.12
2019-01-10T06:51:56.313Z,101052.52
2019-01-10T06:54:27.703Z,101051.62
2019-01-10T06:56:59.190Z,101052.43
2019-01-10T06:59:30.425Z,101054.63
2019-01-10T07:02:02.024Z,101047.70
2019-01-10T07:04:33.541Z,101058.95
2019-01-10T07:07:05.017Z,101054.63
2019-01-10T07:09:36.581Z,101061.56
2019-01-10T07:12:07.994Z,101059.77
2019-01-10T07:14:39.305Z,101063.35
2019-01-10T07:17:10.603Z,101051.45
2019-01-10T07:19:45.005Z,101065.55
2019-01-10T07:22:17.056Z,101068.23
2019-01-10T07:24:53.572Z,101070.02
2019-01-10T07:27:25.235Z,101078.89
2019-01-10T07:29:59.642Z,101084.02
2019-01-10T07:32:31.357Z,101086.14
2019-01-10T07:35:04.079Z,101102.19
2019-01-10T07:37:37.024Z,101097.70
2019-01-10T07:40:16.512Z,101099.98
2019-01-10T07:42:50.778Z,101101.95
2019-01-10T07:45:24.453Z,101102.53
2019-01-10T07:47:56.036Z,101109.05
2019-01-10T07:50:31.381Z,101106.36
2019-01-10T07:53:02.830Z,101105.22
2019-01-10T07:55:34.044Z,101111.73
2019-01-10T07:58:07.534Z,101120.95
2019-01-10T08:00:38.924Z,101115.81
2019-01-10T08:03:10.547Z,101116.31
2019-01-10T08:05:41.888Z,101124.05
2019-01-10T08:08:14.307Z,101124.63
2019-01-10T08:10:45.889Z,101130.33
2019-01-10T08:13:17.188Z,101134.23
2019-01-10T08:15:48.593Z,101135.14
2019-01-10T08:18:19.889Z,101140.44
2019-01-10T08:20:51.205Z,101133.77
2019-01-10T08:23:22.539Z,101141.91
2019-01-10T08:25:53.910Z,101144.60
2019-01-10T08:28:25.200Z,101138.58
2019-01-10T08:30:56.562Z,101147.38
2019-01-10T08:33:27.862Z,101151.78
2019-01-10T08:35:59.228Z,101155.52
2019-01-10T08:38:30.593Z,101156.19
2019-01-10T08:41:01.966Z,101156.59
2019-01-10T08:43:34.892Z,101168.24
2019-01-10T08:46:06.239Z,101162.22
2019-01-10T08:48:37.651Z,101161.89
2019-01-10T08:51:08.952Z,101169.80
2019-01-10T08:53:40.319Z,101167.69
2019-01-10T08:56:11.609Z,101163.94
2019-01-10T08:58:43.038Z,101173.23
2019-01-10T09:01:14.262Z,101171.78
2019-01-10T09:03:45.606Z,101172.52
2019-01-10T09:06:18.593Z,101181.82
2019-01-10T09:08:50.838Z,101186.30
2019-01-10T09:11:22.375Z,101184.27
2019-01-10T09:13:53.726Z,101189.66
2019-01-10T09:16:24.985Z,101193.48
2019-01-10T09:18:56.394Z,101194.80
2019-01-10T09:21:27.685Z,101194.71
2019-01-10T09:23:58.960Z,101203.92
2019-01-10T09:26:37.736Z,101204.83
2019-01-10T09:29:03.177Z,101211.43
2019-01-10T09:31:34.406Z,101221.30
2019-01-10T09:34:05.846Z,101213.47
2019-01-10T09:36:37.953Z,101215.42
2019-01-10T09:39:09.618Z,101224.31
2019-01-10T09:41:40.982Z,101214.45
2019-01-10T09:44:14.335Z,101215.11
2019-01-10T09:46:46.987Z,101221.80
2019-01-10T09:49:18.265Z,101212.09
2019-01-10T09:51:49.567Z,101223.94
2019-01-10T09:54:20.836Z,101220.76
2019-01-10T09:56:52.069Z,101218.88
2019-01-10T09:59:23.409Z,101224.84
2019-01-10T10:01:54.773Z,101224.52
2019-01-10T10:04:26.129Z,101226.19
2019-01-10T10:06:58.993Z,101227.62
2019-01-10T10:09:30.297Z,101231.78
2019-01-10T10:12:01.531Z,101235.70
2019-01-10T10:14:33.482Z,101239.45
2019-01-10T10:17:04.758Z,101234.72
2019-01-10T10:19:36.043Z,101237.98
2019-01-10T10:22:07.470Z,101238.88
2019-01-10T10:24:41.423Z,101231.00
2019-01-10T10:27:12.983Z,101232.05
2019-01-10T10:29:44.392Z,101229.77
2019-01-10T10:32:16.415Z,101227.15
2019-01-10T10:34:47.965Z,101224.61
2019-01-10T10:37:19.530Z,101219.89
2019-01-10T10:39:51.094Z,101223.33
2019-01-10T10:42:24.768Z,101225.12
2019-01-10T10:44:59.296Z,101232.14
2019-01-10T10:47:30.560Z,101233.12
2019-01-10T10:53:52.710Z,101240.79
2019-01-10T10:56:59.342Z,101233.94
2019-01-10T10:59:30.925Z,101237.69
2019-01-10T11:02:03.751Z,101246.27
2019-01-10T11:04:35.522Z,101240.71
2019-01-10T11:07:07.921Z,101244.47
2019-01-10T11:09:39.199Z,101248.46
2019-01-10T11:12:10.674Z,101243.81
2019-01-10T11:14:42.093Z,101243.73
2019-01-10T11:17:14.855Z,101244.13
2019-01-10T11:19:46.238Z,101228.70
2019-01-10T11:22:24.690Z,101232.14
2019-01-10T11:24:56.597Z,101226.75
2019-01-10T11:27:28.035Z,101221.20
2019-01-10T11:29:59.286Z,101223.07
2019-01-10T11:32:30.757Z,101221.35
2019-01-10T11:35:02.280Z,101221.11
2019-01-10T11:37:34.524Z,101217.83
2019-01-10T11:40:13.482Z,101220.95
2019-01-10T11:42:45.059Z,101220.13
2019-01-10T11:45:20.094Z,101223.47
2019-01-10T11:47:51.660Z,101221.75
2019-01-10T11:50:23.149Z,101219.55
2019-01-10T11:52:55.078Z,101225.18
2019-01-10T11:55:26.860Z,101229.34
2019-01-10T11:57:59.929Z,101225.59
2019-01-10T12:00:31.984Z,101215.22
2019-01-10T12:03:03.483Z,101220.11
2019-01-10T12:05:35.586Z,101218.81
2019-01-10T12:08:07.015Z,101217.58
2019-01-10T12:10:38.452Z,101215.55
2019-01-10T12:13:09.872Z,101220.36
2019-01-10T12:15:41.283Z,101221.11
2019-01-10T12:18:12.767Z,101213.67
2019-01-10T12:20:44.063Z,101215.47
2019-01-10T12:23:16.999Z,101216.05
2019-01-10T12:25:48.294Z,101208.54
2019-01-10T12:28:19.939Z,101211.88
2019-01-10T12:30:51.239Z,101205.76
2019-01-10T12:33:22.690Z,101207.47
2019-01-10T12:35:53.943Z,101210.58
2019-01-10T12:38:26.223Z,101209.67
2019-01-10T12:40:57.552Z,101208.13
2019-01-10T12:43:29.942Z,101219.48
2019-01-10T12:46:01.524Z,101214.34
2019-01-10T12:48:32.914Z,101216.06
2019-01-10T12:51:04.378Z,101211.90
2019-01-10T12:53:35.896Z,101208.88
2019-01-10T12:56:07.347Z,101208.23
2019-01-10T12:58:38.783Z,101213.45
2019-01-10T13:01:10.326Z,101216.72
2019-01-10T13:03:41.755Z,101209.94
2019-01-10T13:06:15.143Z,101206.67
2019-01-10T13:08:46.758Z,101203.00
2019-01-10T13:11:18.132Z,101205.94
2019-01-10T13:13:51.091Z,101211.89
2019-01-10T13:16:23.790Z,101205.20
2019-01-10T13:18:55.187Z,101207.56
2019-01-10T13:21:26.782Z,101214.17
2019-01-10T13:23:58.461Z,101216.06
2019-01-10T13:26:30.374Z,101217.61
2019-01-10T13:29:01.748Z,101215.48
2019-01-10T13:31:33.068Z,101228.14
2019-01-10T13:34:04.979Z,101222.11
2019-01-10T13:36:36.502Z,101225.41
2019-01-10T13:39:09.505Z,101230.75
2019-01-10T13:41:41.418Z,101231.66
2019-01-10T13:44:13.828Z,101231.25
2019-01-10T13:46:45.463Z,101234.34
2019-01-10T13:49:22.654Z,101239.98
2019-01-10T13:51:54.072Z,101234.75
2019-01-10T13:54:28.295Z,101236.38
2019-01-10T13:56:59.631Z,101240.30
2019-01-10T13:59:31.255Z,101235.66
2019-01-10T14:02:03.812Z,101232.63
2019-01-10T14:04:35.367Z,101234.55
2019-01-10T14:07:07.533Z,101240.87
2019-01-10T14:09:39.753Z,101235.24
2019-01-10T14:12:13.035Z,101234.34
2019-01-10T14:14:46.990Z,101239.57
2019-01-10T14:17:19.931Z,101238.27
2019-01-10T14:19:54.930Z,101239.57
2019-01-10T14:22:26.306Z,101239.65
2019-01-10T14:24:57.950Z,101247.41
2019-01-10T14:27:40.113Z,101249.20
2019-01-10T14:30:30.054Z,101241.94
2019-01-10T14:33:01.505Z,101250.91
2019-01-10T14:35:33.171Z,101249.60
2019-01-10T14:38:04.543Z,101251.73
2019-01-10T14:40:36.087Z,101251.36
2019-01-10T14:43:11.695Z,101256.91
2019-01-10T14:45:44.105Z,101253.08
2019-01-10T14:48:15.603Z,101258.38
2019-01-10T14:50:47.138Z,101252.75
2019-01-10T14:53:19.995Z,101261.97
2019-01-10T14:55:54.136Z,101261.56
2019-01-10T14:58:25.603Z,101261.19
2019-01-10T15:00:58.084Z,101262.38
2019-01-10T15:03:29.475Z,101269.03
2019-01-10T15:06:01.102Z,101262.88
2019-01-10T15:08:32.367Z,101263.28
2019-01-10T15:11:04.077Z,101269.64
2019-01-10T15:13:35.379Z,101271.10
2019-01-10T15:16:06.829Z,101282.77
2019-01-10T15:18:38.212Z,101284.48
2019-01-10T15:21:09.820Z,101284.40
2019-01-10T15:23:41.082Z,101281.53
2019-01-10T15:26:13.354Z,101280.31
2019-01-10T15:28:45.154Z,101281.22
2019-01-10T15:31:16.914Z,101285.63
2019-01-10T15:33:48.507Z,101287.50
2019-01-10T15:36:25.672Z,101288.89
2019-01-10T15:39:00.167Z,101284.81
2019-01-10T15:41:32.692Z,101289.14
2019-01-10T15:44:04.223Z,101289.72
2019-01-10T15:46:35.575Z,101291.91
2019-01-10T15:49:14.665Z,101295.98
2019-01-10T15:51:47.683Z,101299.23
2019-01-10T15:54:19.029Z,101301.59
2019-01-10T15:56:52.189Z,101298.58
2019-01-10T15:59:25.213Z,101309.02
2019-01-10T16:01:56.697Z,101303.80
2019-01-10T16:04:27.950Z,101307.37
2019-01-10T16:07:00.421Z,101307.37
2019-01-10T16:09:37.147Z,101310.38
2019-01-10T16:12:05.227Z,101310.36
2019-01-10T16:14:37.712Z,101310.19
2019-01-10T16:17:10.621Z,101313.52
2019-01-10T16:19:41.924Z,101313.93
2019-01-10T16:22:13.515Z,101320.05
2019-01-10T16:24:45.830Z,101325.18
2019-01-10T16:27:17.186Z,101330.48
2019-01-10T16:29:48.514Z,101325.41
2019-01-10T16:32:19.919Z,101327.94
2019-01-10T16:34:52.881Z,101341.79
2019-01-10T16:37:24.365Z,101337.97
2019-01-10T16:39:55.666Z,101338.28
2019-01-10T16:42:27.053Z,101340.80
2019-01-10T16:44:58.376Z,101343.33
2019-01-10T16:47:31.680Z,101346.83
2019-01-10T16:50:07.646Z,101348.14
2019-01-10T16:52:39.022Z,101346.69
2019-01-10T16:55:12.583Z,101347.96
2019-01-10T16:57:50.087Z,101348.77
2019-01-10T17:04:18.725Z,101348.50
2019-01-10T17:06:50.127Z,101356.97
2019-01-10T17:09:27.127Z,101355.25
2019-01-10T17:11:58.638Z,101355.25
2019-01-10T17:14:30.218Z,101358.18
2019-01-10T17:17:01.620Z,101351.97
2019-01-10T17:19:33.209Z,101357.91
2019-01-10T17:22:05.030Z,101357.19
2019-01-10T17:24:36.662Z,101367.53
2019-01-10T17:27:08.162Z,101367.12
2019-01-10T17:29:39.720Z,101359.48
2019-01-10T17:32:11.172Z,101361.87
2019-01-10T17:34:42.592Z,101362.77
2019-01-10T17:37:14.035Z,101361.64
2019-01-10T17:39:45.493Z,101367.48
2019-01-10T17:42:17.331Z,101366.01
2019-01-10T17:44:52.578Z,101361.24
2019-01-10T17:47:24.442Z,101369.37
2019-01-10T17:49:55.880Z,101372.98
2019-01-10T17:52:30.100Z,101375.00
2019-01-10T17:55:02.132Z,101384.58
2019-01-10T17:57:33.976Z,101380.17
2019-01-10T18:00:11.078Z,101381.30
2019-01-10T18:02:43.311Z,101383.00
2019-01-10T18:13:41.664Z,101382.09
2019-01-10T18:16:14.422Z,101383.31
2019-01-10T18:18:46.054Z,101376.26
2019-01-10T18:21:17.661Z,101380.48
2019-01-10T18:23:49.167Z,101387.72
2019-01-10T18:26:20.595Z,101388.44
2019-01-10T18:28:52.167Z,101386.59
2019-01-10T18:31:23.586Z,101395.41
2019-01-10T18:33:55.511Z,101389.52
2019-01-10T18:36:27.034Z,101391.76
2019-01-10T18:38:58.534Z,101395.61
2019-01-10T18:41:30.225Z,101397.54
2019-01-10T18:44:01.836Z,101398.88
2019-01-10T18:46:36.308Z,101396.09
2019-01-10T18:49:08.630Z,101395.16
2019-01-10T18:51:40.126Z,101401.67
2019-01-10T18:54:11.783Z,101403.31
2019-01-10T18:56:43.343Z,101409.02
2019-01-10T18:59:16.329Z,101416.16
2019-01-10T19:01:47.858Z,101411.25
2019-01-10T19:04:19.385Z,101412.67
2019-01-10T19:06:50.917Z,101418.78
2019-01-10T19:09:22.729Z,101415.27
2019-01-10T19:11:54.433Z,101417.57
2019-01-10T19:14:26.160Z,101418.28
2019-01-10T19:16:57.859Z,101418.06
2019-01-10T19:19:29.501Z,101417.57
2019-01-10T19:22:00.954Z,101415.87
2019-01-10T19:24:32.584Z,101417.66
2019-01-10T19:27:06.833Z,101426.79
2019-01-10T19:29:38.588Z,101425.58
2019-01-10T19:32:15.509Z,101423.98
2019-01-10T19:34:46.703Z,101427.12
2019-01-10T19:37:18.185Z,101432.16
2019-01-10T19:39:51.710Z,101432.86
2019-01-10T19:42:23.744Z,101431.47
2019-01-10T19:44:55.480Z,101428.06
2019-01-10T19:47:27.932Z,101426.56
2019-01-10T19:49:59.475Z,101420.55
2019-01-10T19:52:31.043Z,101424.15
2019-01-10T19:55:02.559Z,101423.34
2019-01-10T19:57:34.231Z,101426.64
2019-01-10T20:00:28.598Z,101429.97
2019-01-10T20:03:00.231Z,101432.98
2019-01-10T20:05:31.970Z,101425.88
2019-01-10T20:08:04.458Z,101418.86
2019-01-10T20:10:35.994Z,101423.47
2019-01-10T20:13:07.634Z,101422.60
2019-01-10T20:15:39.545Z,101418.20
2019-01-10T20:18:16.252Z,101421.42
2019-01-10T20:20:44.536Z,101433.53
2019-01-10T20:23:16.220Z,101437.94
2019-01-10T20:25:49.384Z,101435.92
2019-01-10T20:28:20.840Z,101444.84
2019-01-10T20:30:52.468Z,101445.13
2019-01-10T20:33:23.952Z,101445.54
2019-01-10T20:35:55.414Z,101442.84
2019-01-10T20:38:35.797Z,101440.14
2019-01-10T20:41:07.348Z,101445.75
2019-01-10T20:43:38.907Z,101451.16
2019-01-10T20:46:10.491Z,101445.16
2019-01-10T20:48:42.725Z,101446.45
2019-01-10T20:51:14.338Z,101444.36
2019-01-10T20:53:45.949Z,101441.95
2019-01-10T20:56:17.630Z,101443.95
2019-01-10T20:58:49.159Z,101449.25
2019-01-10T21:01:21.500Z,101457.37
2019-01-10T21:03:53.090Z,101454.17
2019-01-10T21:06:25.817Z,101451.77
2019-01-10T21:08:58.323Z,101454.67
2019-01-10T21:14:00.284Z,101449.16
2019-01-10T21:16:31.771Z,101454.97
2019-01-10T21:19:03.342Z,101454.97
2019-01-10T21:21:35.022Z,101449.16
2019-01-10T21:24:06.783Z,101448.56
2019-01-10T21:26:38.291Z,101454.47
2019-01-10T21:29:09.941Z,101455.07
2019-01-10T21:31:41.297Z,101461.28
2019-01-10T21:34:12.704Z,101457.17
2019-01-10T21:36:44.124Z,101454.97
2019-01-10T21:39:16.006Z,101458.97
2019-01-10T21:41:47.540Z,101460.27
2019-01-10T21:44:18.977Z,101451.36
2019-01-10T21:46:50.373Z,101453.97
2019-01-10T21:49:21.994Z,101446.16
2019-01-10T21:51:53.387Z,101454.55
2019-01-10T21:54:27.545Z,101456.75
2019-01-10T21:56:59.121Z,101458.55
2019-01-10T21:59:30.599Z,101451.75
2019-01-10T22:02:02.113Z,101448.23
2019-01-10T22:04:33.628Z,101450.63
2019-01-10T22:07:04.968Z,101446.34
2019-01-10T22:09:36.484Z,101447.16
2019-01-10T22:12:07.880Z,101457.77
2019-01-10T22:14:39.315Z,101453.66
2019-01-10T22:17:10.722Z,101453.66
2019-01-10T22:19:42.071Z,101449.97
2019-01-10T22:22:13.582Z,101455.55
2019-01-10T22:24:46.055Z,101455.44
2019-01-10T22:27:17.423Z,101461.95
2019-01-10T22:29:48.805Z,101456.66
2019-01-10T22:32:21.832Z,101455.75
2019-01-10T22:34:53.330Z,101458.05
2019-01-10T22:37:28.925Z,101458.15
2019-01-10T22:39:57.935Z,101449.45
2019-01-10T22:42:29.340Z,101454.13
2019-01-10T22:45:00.768Z,101452.84
2019-01-10T22:47:33.175Z,101447.14
2019-01-10T22:50:09.367Z,101453.36
2019-01-10T22:52:40.730Z,101451.77
2019-01-10T22:55:14.442Z,101450.37
2019-01-10T22:57:45.993Z,101447.96
2019-01-10T23:00:57.525Z,101447.66
2019-01-10T23:03:34.002Z,101447.77
2019-01-10T23:06:05.822Z,101445.76
2019-01-10T23:08:42.907Z,101447.16
2019-01-10T23:11:18.732Z,101453.55
2019-01-10T23:13:57.891Z,101455.57
2019-01-10T23:16:29.643Z,101451.87
2019-01-10T23:19:01.345Z,101454.66
2019-01-10T23:21:32.997Z,101457.27
2019-01-10T23:24:06.362Z,101458.17
2019-01-10T23:26:37.970Z,101444.56
2019-01-10T23:29:09.414Z,101454.17
2019-01-10T23:31:40.867Z,101441.85
2019-01-10T23:34:12.576Z,101441.95
2019-01-10T23:36:48.322Z,101443.14
2019-01-10T23:39:19.876Z,101440.53
2019-01-10T23:41:51.506Z,101425.34
2019-01-10T23:44:22.987Z,101421.55
2019-01-10T23:46:54.500Z,101421.94
2019-01-10T23:49:26.013Z,101430.95
2019-01-10T23:51:58.359Z,101423.64
2019-01-10T23:54:29.694Z,101432.44
2019-01-10T23:57:01.148Z,101429.53
2019-01-10T23:59:32.497Z,101428.73
